createdAt,value
2019-02-22T00:00:33.515Z,7.75
2019-02-22T00:03:00.914Z,7.70
2019-02-22T00:05:28.330Z,6.60
2019-02-22T00:07:56.613Z,7.62
2019-02-22T00:10:24.065Z,8.10
2019-02-22T00:12:51.491Z,7.10
2019-02-22T00:15:18.888Z,8.50
2019-02-22T00:17:46.348Z,7.32
2019-02-22T00:20:13.775Z,6.55
2019-02-22T00:22:41.193Z,8.55
2019-02-22T00:25:08.632Z,7.37
2019-02-22T00:27:36.039Z,8.55
2019-02-22T00:30:03.431Z,8.70
2019-02-22T00:32:30.889Z,8.68
2019-02-22T00:34:58.330Z,8.07
2019-02-22T00:37:25.727Z,6.35
2019-02-22T00:39:53.157Z,7.12
2019-02-22T00:42:20.571Z,5.97
2019-02-22T00:44:48.039Z,7.30
2019-02-22T00:47:15.438Z,8.10
2019-02-22T00:49:42.844Z,7.07
2019-02-22T00:52:10.242Z,8.55
2019-02-22T00:54:37.676Z,7.57
2019-02-22T00:57:05.065Z,7.07
2019-02-22T00:59:32.481Z,8.93
2019-02-22T01:02:00.046Z,7.60
2019-02-22T01:04:27.437Z,6.40
2019-02-22T01:06:54.874Z,7.85
2019-02-22T01:09:22.288Z,7.62
2019-02-22T01:11:49.691Z,7.15
2019-02-22T01:14:17.128Z,6.65
2019-02-22T01:16:44.547Z,7.07
2019-02-22T01:19:11.935Z,7.70
2019-02-22T01:21:39.339Z,8.88
2019-02-22T01:24:06.747Z,7.50
2019-02-22T01:26:34.169Z,9.27
2019-02-22T01:29:01.557Z,6.12
2019-02-22T01:31:28.940Z,7.55
2019-02-22T01:33:56.787Z,7.43
2019-02-22T01:36:24.202Z,7.05
2019-02-22T01:38:51.615Z,8.90
2019-02-22T01:41:19.044Z,7.80
2019-02-22T01:43:46.598Z,7.37
2019-02-22T01:46:14.066Z,7.87
2019-02-22T01:48:41.468Z,6.55
2019-02-22T01:51:08.867Z,6.55
2019-02-22T01:53:36.267Z,8.10
2019-02-22T01:56:03.677Z,7.55
2019-02-22T01:58:31.099Z,8.07
2019-02-22T02:00:58.490Z,6.85
2019-02-22T02:03:25.964Z,8.90
2019-02-22T02:05:53.380Z,7.87
2019-02-22T02:08:20.975Z,7.00
2019-02-22T02:10:54.075Z,7.40
2019-02-22T02:13:15.905Z,7.10
2019-02-22T02:15:43.308Z,8.80
2019-02-22T02:18:10.713Z,7.30
2019-02-22T02:20:38.127Z,8.43
2019-02-22T02:23:05.534Z,6.65
2019-02-22T02:25:32.940Z,6.87
2019-02-22T02:28:00.349Z,7.45
2019-02-22T02:30:27.760Z,7.62
2019-02-22T02:32:55.148Z,6.30
2019-02-22T02:35:22.538Z,6.85
2019-02-22T02:37:49.943Z,5.10
2019-02-22T02:40:17.336Z,8.30
2019-02-22T02:42:44.775Z,7.22
2019-02-22T02:45:12.236Z,6.85
2019-02-22T02:47:39.697Z,6.32
2019-02-22T02:50:07.104Z,7.35
2019-02-22T02:52:34.502Z,6.53
2019-02-22T02:55:02.062Z,7.18
2019-02-22T02:57:29.529Z,6.37
2019-02-22T02:59:56.980Z,7.25
2019-02-22T03:02:24.397Z,5.70
2019-02-22T03:04:51.810Z,7.05
2019-02-22T03:07:24.892Z,5.37
2019-02-22T03:09:52.304Z,8.55
2019-02-22T03:12:19.795Z,7.72
2019-02-22T03:14:47.243Z,8.18
2019-02-22T03:17:14.614Z,6.90
2019-02-22T03:19:42.048Z,9.65
2019-02-22T03:22:09.456Z,8.40
2019-02-22T03:24:36.921Z,6.50
2019-02-22T03:27:04.278Z,7.10
2019-02-22T03:29:31.682Z,6.57
2019-02-22T03:31:59.247Z,6.47
2019-02-22T03:34:26.636Z,6.93
2019-02-22T03:36:54.050Z,8.70
2019-02-22T03:39:21.512Z,6.43
2019-02-22T03:41:49.069Z,6.82
2019-02-22T03:44:16.507Z,6.05
2019-02-22T03:46:43.907Z,6.62
2019-02-22T03:49:11.316Z,7.18
2019-02-22T03:51:38.737Z,7.40
2019-02-22T03:54:06.136Z,7.03
2019-02-22T03:56:33.548Z,9.15
2019-02-22T03:59:01.242Z,6.20
2019-02-22T04:01:28.646Z,8.10
2019-02-22T04:03:56.041Z,8.55
2019-02-22T04:06:23.444Z,7.65
2019-02-22T04:08:50.860Z,7.57
2019-02-22T04:11:18.377Z,7.25
2019-02-22T04:13:45.790Z,6.62
2019-02-22T04:16:13.202Z,9.23
2019-02-22T04:18:40.606Z,6.60
2019-02-22T04:21:08.008Z,6.65
2019-02-22T04:23:35.403Z,6.70
2019-02-22T04:26:02.826Z,7.75
2019-02-22T04:28:30.247Z,6.78
2019-02-22T04:30:57.655Z,6.53
2019-02-22T04:33:25.064Z,6.90
2019-02-22T04:35:52.469Z,6.07
2019-02-22T04:38:19.943Z,7.28
2019-02-22T04:40:47.341Z,8.68
2019-02-22T04:43:14.747Z,6.25
2019-02-22T04:45:42.345Z,7.30
2019-02-22T04:48:09.745Z,7.55
2019-02-22T04:50:37.138Z,6.90
2019-02-22T04:53:04.547Z,7.65
2019-02-22T04:55:31.969Z,5.87
2019-02-22T04:57:59.941Z,6.53
2019-02-22T05:00:27.351Z,6.45
2019-02-22T05:02:54.747Z,8.05
2019-02-22T05:05:22.259Z,9.85
2019-02-22T05:07:49.706Z,6.12
2019-02-22T05:10:17.112Z,6.12
2019-02-22T05:12:44.510Z,6.70
2019-02-22T05:15:13.078Z,5.87
2019-02-22T05:17:39.337Z,7.60
2019-02-22T05:20:06.725Z,6.95
2019-02-22T05:22:34.135Z,7.85
2019-02-22T05:25:01.550Z,6.95
2019-02-22T05:27:29.127Z,8.38
2019-02-22T05:29:56.676Z,7.97
2019-02-22T05:32:24.069Z,9.18
2019-02-22T05:34:51.467Z,8.13
2019-02-22T05:37:18.951Z,6.28
2019-02-22T05:39:46.346Z,7.32
2019-02-22T05:42:22.607Z,6.75
2019-02-22T05:44:41.201Z,6.85
2019-02-22T05:47:08.598Z,9.88
2019-02-22T05:49:36.012Z,8.68
2019-02-22T05:52:03.419Z,7.30
2019-02-22T05:54:30.814Z,7.90
2019-02-22T05:56:58.292Z,7.70
2019-02-22T05:59:25.727Z,7.85
2019-02-22T06:01:53.246Z,10.10
2019-02-22T06:04:20.644Z,7.80
2019-02-22T06:06:48.115Z,8.27
2019-02-22T06:09:15.699Z,7.45
2019-02-22T06:11:43.120Z,7.03
2019-02-22T06:14:10.524Z,9.32
2019-02-22T06:16:37.924Z,7.07
2019-02-22T06:19:05.349Z,7.20
2019-02-22T06:21:32.775Z,8.68
2019-02-22T06:24:02.751Z,6.30
2019-02-22T06:26:30.336Z,6.62
2019-02-22T06:28:55.017Z,6.45
2019-02-22T06:31:22.415Z,7.65
2019-02-22T06:33:49.858Z,7.57
2019-02-22T06:36:17.294Z,7.75
2019-02-22T06:38:46.731Z,6.10
2019-02-22T06:41:12.396Z,7.90
2019-02-22T06:43:39.800Z,6.60
2019-02-22T06:46:07.948Z,8.10
2019-02-22T06:48:35.378Z,6.25
2019-02-22T06:51:02.798Z,7.50
2019-02-22T06:53:30.277Z,8.65
2019-02-22T06:55:57.717Z,7.82
2019-02-22T06:58:25.463Z,7.12
2019-02-22T07:00:52.913Z,6.00
2019-02-22T07:03:20.561Z,6.90
2019-02-22T07:05:48.084Z,5.10
2019-02-22T07:08:15.400Z,7.28
2019-02-22T07:11:03.631Z,6.68
2019-02-22T07:13:31.049Z,7.95
2019-02-22T07:15:58.463Z,7.70
2019-02-22T07:18:25.878Z,9.65
2019-02-22T07:20:53.460Z,10.48
2019-02-22T07:23:20.875Z,6.70
2019-02-22T07:25:48.280Z,8.65
2019-02-22T07:28:15.689Z,6.40
2019-02-22T07:30:43.122Z,5.72
2019-02-22T07:33:10.664Z,9.15
2019-02-22T07:35:38.102Z,10.13
2019-02-22T07:38:05.528Z,10.48
2019-02-22T07:40:32.963Z,9.35
2019-02-22T07:43:07.750Z,11.05
2019-02-22T07:45:27.913Z,9.32
2019-02-22T07:47:55.328Z,11.23
2019-02-22T07:50:22.752Z,11.88
2019-02-22T07:52:50.242Z,10.20
2019-02-22T07:55:17.678Z,11.30
2019-02-22T07:57:45.079Z,11.77
2019-02-22T08:00:13.349Z,10.07
2019-02-22T08:02:40.757Z,9.32
2019-02-22T08:05:09.213Z,9.40
2019-02-22T08:07:35.602Z,11.23
2019-02-22T08:10:03.065Z,10.38
2019-02-22T08:12:30.492Z,10.82
2019-02-22T08:14:58.220Z,8.30
2019-02-22T08:17:25.653Z,9.30
2019-02-22T08:19:53.356Z,11.02
2019-02-22T08:22:20.907Z,10.65
2019-02-22T08:24:48.274Z,12.07
2019-02-22T08:46:51.715Z,13.40
2019-02-22T08:49:19.157Z,12.37
2019-02-22T08:51:47.028Z,13.93
2019-02-22T08:54:14.123Z,11.07
2019-02-22T08:56:41.620Z,12.02
2019-02-22T08:59:09.513Z,13.05
2019-02-22T09:01:37.065Z,14.65
2019-02-22T09:04:04.526Z,14.87
2019-02-22T09:06:31.976Z,12.85
2019-02-22T09:08:59.640Z,13.82
2019-02-22T09:11:27.158Z,10.52
2019-02-22T09:13:54.637Z,13.77
2019-02-22T09:16:22.051Z,10.93
2019-02-22T09:18:49.519Z,11.88
2019-02-22T09:21:16.937Z,13.20
2019-02-22T09:23:44.360Z,10.95
2019-02-22T09:26:11.867Z,14.13
2019-02-22T09:28:39.282Z,12.55
2019-02-22T09:31:06.697Z,12.68
2019-02-22T09:33:34.097Z,13.00
2019-02-22T09:36:01.524Z,14.05
2019-02-22T09:38:28.935Z,13.02
2019-02-22T09:40:56.351Z,13.05
2019-02-22T09:43:23.788Z,9.70
2019-02-22T09:45:51.203Z,12.25
2019-02-22T09:48:18.729Z,11.93
2019-02-22T09:50:46.149Z,11.68
2019-02-22T09:53:13.551Z,11.50
2019-02-22T09:55:40.996Z,13.52
2019-02-22T09:58:08.472Z,13.10
2019-02-22T10:00:35.975Z,12.75
2019-02-22T10:03:03.368Z,13.23
2019-02-22T10:05:30.849Z,14.35
2019-02-22T10:07:58.362Z,15.68
2019-02-22T10:12:52.950Z,12.30
2019-02-22T10:15:20.384Z,10.30
2019-02-22T10:17:48.072Z,10.23
2019-02-22T10:20:15.262Z,9.25
2019-02-22T10:22:42.755Z,10.45
2019-02-22T10:25:10.173Z,10.45
2019-02-22T10:27:37.575Z,10.65
2019-02-22T10:34:59.629Z,10.23
2019-02-22T10:37:27.157Z,10.88
2019-02-22T10:39:54.657Z,10.13
2019-02-22T10:42:22.096Z,10.23
2019-02-22T10:47:16.455Z,11.68
2019-02-22T10:49:43.961Z,34.67
2019-02-22T10:52:11.368Z,12.85
2019-02-22T10:54:38.876Z,11.73
2019-02-22T10:57:06.304Z,12.23
2019-02-22T10:59:33.739Z,10.45
2019-02-22T11:02:01.152Z,10.90
2019-02-22T11:04:28.731Z,10.95
2019-02-22T11:06:56.192Z,12.68
2019-02-22T11:41:14.448Z,11.15
2019-02-22T11:43:41.897Z,12.18
2019-02-22T11:46:09.339Z,12.73
2019-02-22T11:48:36.814Z,15.55
2019-02-22T11:51:05.170Z,15.63
2019-02-22T11:53:32.641Z,14.98
2019-02-22T11:56:00.047Z,15.07
2019-02-22T11:58:27.476Z,12.32
2019-02-22T12:00:55.007Z,13.10
2019-02-22T12:03:24.975Z,14.05
2019-02-22T12:05:50.047Z,11.45
2019-02-22T12:08:17.486Z,11.10
2019-02-22T12:10:44.875Z,11.95
2019-02-22T12:13:12.401Z,16.02
2019-02-22T12:15:39.871Z,12.40
2019-02-22T12:18:07.311Z,13.27
2019-02-22T12:20:34.762Z,14.77
2019-02-22T12:25:29.294Z,15.98
2019-02-22T12:27:56.947Z,13.05
2019-02-22T12:30:25.682Z,9.23
2019-02-22T12:32:51.795Z,11.27
2019-02-22T12:35:19.237Z,9.55
2019-02-22T12:37:46.864Z,8.40
2019-02-22T12:57:23.224Z,7.10
2019-02-22T12:59:50.754Z,6.65
2019-02-22T13:02:18.314Z,5.78
2019-02-22T13:21:54.660Z,6.95
2019-02-22T13:24:22.069Z,7.35
2019-02-22T13:26:49.506Z,8.85
2019-02-22T13:29:16.922Z,5.45
2019-02-22T13:31:44.345Z,9.00
2019-02-22T13:34:11.762Z,6.80
2019-02-22T13:36:39.520Z,4.55
2019-02-22T13:39:06.922Z,5.50
2019-02-22T13:41:34.360Z,5.32
2019-02-22T13:44:01.775Z,5.32
2019-02-22T13:46:29.201Z,5.55
2019-02-22T13:48:56.596Z,5.45
2019-02-22T13:51:24.018Z,6.80
2019-02-22T13:53:51.499Z,7.47
2019-02-22T13:56:29.141Z,10.60
2019-02-22T14:30:37.035Z,10.25
2019-02-22T14:33:04.570Z,11.35
2019-02-22T14:35:31.984Z,12.80
2019-02-22T14:45:20.813Z,19.58
2019-02-22T14:47:48.279Z,18.40
2019-02-22T14:50:15.711Z,23.40
2019-02-22T14:52:43.142Z,21.00
2019-02-22T14:55:11.135Z,24.23
2019-02-22T14:57:39.454Z,27.87
2019-02-22T15:00:07.675Z,22.43
2019-02-22T15:02:35.196Z,33.87
2019-02-22T15:05:02.643Z,32.67
2019-02-22T15:07:31.317Z,37.80
2019-02-22T15:09:59.106Z,30.90
2019-02-22T15:12:26.167Z,30.60
2019-02-22T15:14:53.626Z,36.50
2019-02-22T15:17:21.434Z,44.83
2019-02-22T15:19:48.863Z,35.67
2019-02-22T15:22:16.294Z,30.73
2019-02-22T15:24:43.944Z,38.47
2019-02-22T15:27:11.611Z,33.00
2019-02-22T15:29:39.019Z,46.67
2019-02-22T15:32:06.605Z,51.27
2019-02-22T15:34:34.081Z,40.50
2019-02-22T15:37:01.712Z,62.47
2019-02-22T15:39:29.182Z,57.77
2019-02-22T15:41:56.675Z,53.10
2019-02-22T15:44:24.189Z,71.47
2019-02-22T15:46:51.584Z,78.30
2019-02-22T15:49:19.013Z,81.97
2019-02-22T15:51:46.462Z,66.13
2019-02-22T15:54:13.855Z,70.83
2019-02-22T15:56:41.661Z,78.63
2019-02-22T15:59:09.134Z,54.30
2019-02-22T16:01:36.617Z,59.77
2019-02-22T16:04:04.118Z,68.80
2019-02-22T16:06:32.412Z,58.20
2019-02-22T16:08:58.955Z,43.30
2019-02-22T16:11:26.541Z,47.07
2019-02-22T16:13:53.989Z,53.33
2019-02-22T16:16:23.517Z,54.60
2019-02-22T16:18:48.936Z,57.10
2019-02-22T16:21:16.355Z,41.30
2019-02-22T16:23:44.050Z,39.37
2019-02-22T16:26:11.490Z,27.77
2019-02-22T16:28:38.950Z,19.80
2019-02-22T16:31:06.390Z,22.10
2019-02-22T16:33:33.812Z,21.08
2019-02-22T16:36:01.244Z,18.92
2019-02-22T16:38:28.700Z,20.77
2019-02-22T16:40:56.127Z,16.05
2019-02-22T16:43:23.532Z,14.02
2019-02-22T16:45:51.029Z,11.23
2019-02-22T16:48:18.460Z,11.57
2019-02-22T16:50:45.858Z,10.10
2019-02-22T16:53:13.432Z,8.23
2019-02-22T16:55:40.831Z,6.95
2019-02-22T16:58:08.443Z,5.35
2019-02-22T17:00:35.911Z,5.15
2019-02-22T17:03:03.348Z,7.18
2019-02-22T17:05:30.818Z,4.90
2019-02-22T17:07:58.230Z,4.18
2019-02-22T17:10:25.680Z,5.80
2019-02-22T17:12:53.100Z,4.95
2019-02-22T17:15:20.533Z,7.15
2019-02-22T17:17:48.072Z,5.45
2019-02-22T17:20:15.564Z,6.68
2019-02-22T17:22:43.134Z,6.55
2019-02-22T17:25:15.944Z,4.93
2019-02-22T17:27:43.562Z,6.12
2019-02-22T17:30:13.795Z,7.28
2019-02-22T17:32:41.215Z,7.40
2019-02-22T17:35:08.705Z,6.57
2019-02-22T17:37:36.151Z,6.53
2019-02-22T17:40:03.605Z,8.18
2019-02-22T17:42:31.019Z,6.93
2019-02-22T17:44:58.449Z,6.03
2019-02-22T17:47:25.863Z,6.78
2019-02-22T17:49:54.095Z,7.70
2019-02-22T17:52:21.489Z,6.70
2019-02-22T17:54:48.967Z,7.45
2019-02-22T17:57:16.446Z,7.90
2019-02-22T17:59:43.872Z,8.35
2019-02-22T18:02:11.561Z,9.75
2019-02-22T18:04:38.954Z,8.95
2019-02-22T18:07:06.556Z,8.85
2019-02-22T18:09:34.125Z,8.38
2019-02-22T18:12:01.537Z,9.23
2019-02-22T18:14:28.994Z,8.23
2019-02-22T18:16:56.438Z,7.75
2019-02-22T18:19:23.883Z,8.15
2019-02-22T18:21:51.290Z,6.95
2019-02-22T18:24:18.747Z,7.78
2019-02-22T18:26:46.243Z,7.55
2019-02-22T18:29:13.682Z,8.27
2019-02-22T18:31:42.374Z,7.43
2019-02-22T18:34:08.514Z,6.22
2019-02-22T18:36:35.951Z,6.10
2019-02-22T18:39:05.357Z,7.30
2019-02-22T18:41:32.825Z,6.20
2019-02-22T18:44:00.272Z,6.35
2019-02-22T18:46:27.693Z,6.75
2019-02-22T18:48:55.115Z,6.10
2019-02-22T18:51:22.745Z,6.12
2019-02-22T18:53:50.206Z,6.65
2019-02-22T18:56:17.624Z,5.80
2019-02-22T18:58:45.045Z,6.30
2019-02-22T19:01:12.472Z,8.73
2019-02-22T19:03:39.919Z,5.95
2019-02-22T19:06:07.383Z,6.50
2019-02-22T19:08:34.871Z,6.75
2019-02-22T19:11:02.273Z,6.57
2019-02-22T19:13:29.703Z,7.40
2019-02-22T19:15:57.311Z,6.30
2019-02-22T19:18:24.702Z,6.40
2019-02-22T19:20:52.710Z,5.95
2019-02-22T19:23:20.159Z,7.60
2019-02-22T19:25:47.608Z,7.65
2019-02-22T19:28:15.019Z,5.57
2019-02-22T19:30:42.451Z,6.32
2019-02-22T19:33:09.864Z,6.15
2019-02-22T19:35:37.403Z,5.62
2019-02-22T19:38:04.840Z,5.85
2019-02-22T19:40:32.259Z,6.28
2019-02-22T19:42:59.658Z,6.75
2019-02-22T19:45:27.062Z,6.80
2019-02-22T19:47:54.825Z,7.80
2019-02-22T19:50:22.406Z,7.20
2019-02-22T19:52:49.884Z,6.97
2019-02-22T19:55:17.467Z,7.18
2019-02-22T19:57:45.007Z,7.37
2019-02-22T20:00:13.176Z,6.05
2019-02-22T20:02:40.582Z,7.18
2019-02-22T20:05:08.019Z,7.75
2019-02-22T20:07:35.455Z,6.85
2019-02-22T20:10:03.011Z,7.25
2019-02-22T20:12:30.415Z,9.18
2019-02-22T20:14:57.854Z,8.35
2019-02-22T20:17:25.392Z,9.07
2019-02-22T20:19:53.373Z,8.82
2019-02-22T20:22:20.969Z,7.18
2019-02-22T20:24:48.574Z,8.45
2019-02-22T20:27:15.971Z,8.32
2019-02-22T20:29:43.406Z,7.50
2019-02-22T20:32:10.808Z,6.80
2019-02-22T20:34:38.385Z,10.70
2019-02-22T20:37:05.903Z,5.70
2019-02-22T20:39:33.332Z,7.60
2019-02-22T20:42:00.759Z,9.82
2019-02-22T20:44:28.230Z,9.60
2019-02-22T20:46:55.641Z,8.00
2019-02-22T20:49:23.856Z,8.30
2019-02-22T20:51:51.299Z,8.50
2019-02-22T20:54:18.717Z,7.20
2019-02-22T20:56:46.137Z,8.77
2019-02-22T20:59:13.799Z,8.00
2019-02-22T21:01:41.198Z,7.90
2019-02-22T21:04:08.907Z,8.32
2019-02-22T21:06:36.991Z,7.78
2019-02-22T21:09:04.398Z,11.00
2019-02-22T21:11:31.852Z,9.77
2019-02-22T21:13:59.271Z,8.65
2019-02-22T21:16:26.721Z,10.90
2019-02-22T21:18:54.195Z,7.93
2019-02-22T21:21:22.879Z,8.57
2019-02-22T21:23:52.059Z,11.05
2019-02-22T21:26:17.780Z,7.85
2019-02-22T21:28:45.263Z,9.40
2019-02-22T21:31:12.675Z,10.35
2019-02-22T21:33:40.188Z,9.27
2019-02-22T21:36:07.616Z,11.90
2019-02-22T21:38:35.091Z,9.60
2019-02-22T21:41:02.539Z,8.68
2019-02-22T21:43:33.966Z,9.90
2019-02-22T21:46:01.475Z,8.60
2019-02-22T21:48:28.957Z,10.65
2019-02-22T21:50:56.378Z,8.70
2019-02-22T21:53:25.265Z,9.02
2019-02-22T21:55:52.299Z,8.82
2019-02-22T21:58:19.738Z,9.88
2019-02-22T22:00:47.197Z,11.07
2019-02-22T22:03:14.904Z,12.30
2019-02-22T22:05:42.519Z,8.88
2019-02-22T22:08:10.116Z,13.23
2019-02-22T22:10:37.538Z,14.30
2019-02-22T22:13:04.980Z,11.05
2019-02-22T22:15:32.484Z,10.10
2019-02-22T22:17:59.998Z,9.80
2019-02-22T22:20:27.481Z,9.65
2019-02-22T22:22:54.988Z,10.85
2019-02-22T22:25:22.594Z,10.30
2019-02-22T22:27:50.156Z,11.80
2019-02-22T22:30:17.595Z,10.63
2019-02-22T22:32:45.064Z,10.70
2019-02-22T22:35:13.442Z,12.02
2019-02-22T22:37:40.878Z,8.57
2019-02-22T22:40:09.265Z,10.50
2019-02-22T22:42:36.713Z,9.73
2019-02-22T22:45:05.999Z,10.07
2019-02-22T22:47:31.765Z,10.27
2019-02-22T22:49:59.097Z,9.23
2019-02-22T22:52:26.567Z,8.35
2019-02-22T22:54:53.974Z,9.10
2019-02-22T22:57:21.375Z,11.90
2019-02-22T22:59:48.792Z,10.50
2019-02-22T23:02:16.357Z,10.82
2019-02-22T23:04:44.269Z,12.00
2019-02-22T23:07:11.691Z,10.05
2019-02-22T23:09:39.099Z,9.68
2019-02-22T23:12:06.531Z,9.80
2019-02-22T23:14:33.935Z,9.30
2019-02-22T23:17:01.357Z,8.75
2019-02-22T23:19:28.872Z,9.05
2019-02-22T23:21:56.279Z,8.13
2019-02-22T23:24:23.732Z,7.45
2019-02-22T23:26:51.251Z,7.68
2019-02-22T23:29:18.651Z,9.57
2019-02-22T23:31:46.376Z,8.32
2019-02-22T23:34:13.814Z,8.40
2019-02-22T23:36:41.351Z,9.30
2019-02-22T23:39:08.760Z,9.23
2019-02-22T23:41:36.327Z,10.38
2019-02-22T23:44:03.827Z,9.27
2019-02-22T23:46:31.221Z,7.97
2019-02-22T23:48:58.631Z,9.07
2019-02-22T23:51:26.038Z,9.77
2019-02-22T23:53:53.958Z,7.78
2019-02-22T23:56:21.355Z,7.62
2019-02-22T23:58:49.140Z,11.60
